createdAt,value
2017-09-19T00:03:35.127Z,99375.36
2017-09-19T00:07:39.337Z,99389.52
2017-09-19T00:11:43.163Z,99387.62
2017-09-19T00:15:47.377Z,99384.62
2017-09-19T00:19:51.206Z,99386.39
2017-09-19T00:23:55.412Z,99383.66
2017-09-19T00:27:59.247Z,99378.91
2017-09-19T00:32:03.512Z,99371.41
2017-09-19T00:36:07.291Z,99369.78
2017-09-19T00:40:11.517Z,99366.20
2017-09-19T00:44:16.061Z,99368.52
2017-09-19T00:48:19.501Z,99368.11
2017-09-19T00:52:23.262Z,99373.69
2017-09-19T00:56:27.477Z,99380.09
2017-09-19T01:00:32.013Z,99385.81
2017-09-19T01:04:36.222Z,99384.31
2017-09-19T01:08:40.059Z,99385.95
2017-09-19T01:12:44.335Z,99389.63
2017-09-19T01:16:48.097Z,99390.57
2017-09-19T01:20:52.323Z,99390.16
2017-09-19T01:24:56.858Z,99387.03
2017-09-19T01:29:01.153Z,99385.94
2017-09-19T01:33:04.902Z,99388.25
2017-09-19T01:37:09.155Z,99387.41
2017-09-19T01:41:12.968Z,99379.23
2017-09-19T01:45:16.455Z,99375.16
2017-09-19T01:49:20.269Z,99374.20
2017-09-19T01:53:24.493Z,99372.43
2017-09-19T01:57:29.015Z,99375.83
2017-09-19T02:01:33.239Z,99371.07
2017-09-19T02:05:37.883Z,99368.48
2017-09-19T02:09:42.113Z,99371.75
2017-09-19T02:13:46.691Z,99369.03
2017-09-19T02:17:50.182Z,99359.22
2017-09-19T02:21:54.168Z,99366.98
2017-09-19T02:25:58.406Z,99368.34
2017-09-19T02:30:02.211Z,99371.75
2017-09-19T02:34:06.468Z,99368.48
2017-09-19T02:38:10.247Z,99368.07
2017-09-19T02:42:14.532Z,99366.95
2017-09-19T02:46:18.392Z,99364.94
2017-09-19T02:50:22.624Z,99362.32
2017-09-19T02:54:26.436Z,99363.68
2017-09-19T02:58:30.659Z,99354.70
2017-09-19T03:02:35.291Z,99355.23
2017-09-19T03:06:39.523Z,99353.87
2017-09-19T03:10:44.042Z,99350.75
2017-09-19T03:14:48.254Z,99345.98
2017-09-19T03:18:52.078Z,99343.67
2017-09-19T03:22:56.586Z,99346.80
2017-09-19T03:27:00.327Z,99340.53
2017-09-19T03:31:04.547Z,99340.53
2017-09-19T03:35:09.082Z,99346.53
2017-09-19T03:39:13.334Z,99345.30
2017-09-19T03:43:17.135Z,99342.68
2017-09-19T03:47:20.591Z,99347.61
2017-09-19T03:51:24.453Z,99348.53
2017-09-19T03:55:28.670Z,99346.77
2017-09-19T03:59:33.217Z,99348.43
2017-09-19T04:03:37.511Z,99347.85
2017-09-19T04:07:42.792Z,99348.27
2017-09-19T04:11:47.014Z,99348.80
2017-09-19T04:15:51.650Z,99344.72
2017-09-19T04:19:55.859Z,99342.41
2017-09-19T04:23:59.692Z,99346.08
2017-09-19T04:28:03.897Z,99348.40
2017-09-19T04:32:07.630Z,99347.58
2017-09-19T04:36:11.851Z,99347.58
2017-09-19T04:40:16.478Z,99341.73
2017-09-19T04:44:20.699Z,99352.61
2017-09-19T04:48:25.238Z,99358.20
2017-09-19T04:52:29.543Z,99352.03
2017-09-19T04:56:33.310Z,99363.64
2017-09-19T05:00:36.886Z,99364.18
2017-09-19T05:04:40.806Z,99371.09
2017-09-19T05:08:45.035Z,99367.45
2017-09-19T05:12:49.675Z,99375.31
2017-09-19T05:16:53.130Z,99380.21
2017-09-19T05:20:57.003Z,99383.88
2017-09-19T05:25:00.465Z,99378.84
2017-09-19T05:29:04.219Z,99383.34
2017-09-19T05:33:08.430Z,99378.20
2017-09-19T05:37:12.979Z,99381.98
2017-09-19T05:41:16.437Z,99387.86
2017-09-19T05:45:20.198Z,99397.26
2017-09-19T05:49:23.652Z,99398.20
2017-09-19T05:53:27.419Z,99399.16
2017-09-19T05:57:31.675Z,99400.94
2017-09-19T06:01:35.659Z,99406.15
2017-09-19T06:05:39.883Z,99409.09
2017-09-19T06:09:44.422Z,99412.39
2017-09-19T06:13:48.687Z,99410.80
2017-09-19T06:17:52.454Z,99410.37
2017-09-19T06:21:56.671Z,99410.57
2017-09-19T06:26:01.318Z,99405.70
2017-09-19T06:30:05.538Z,99404.47
2017-09-19T06:34:10.175Z,99411.28
2017-09-19T06:38:14.391Z,99413.09
2017-09-19T06:42:19.046Z,99427.80
2017-09-19T06:46:22.506Z,99431.08
2017-09-19T06:50:26.259Z,99434.64
2017-09-19T06:54:30.477Z,99445.14
2017-09-19T06:58:35.010Z,99443.91
2017-09-19T07:02:39.230Z,99443.23
2017-09-19T07:06:43.772Z,99445.41
2017-09-19T07:10:48.039Z,99449.91
2017-09-19T07:14:52.020Z,99456.95
2017-09-19T07:18:56.238Z,99463.09
2017-09-19T07:22:59.977Z,99456.55
2017-09-19T07:27:03.478Z,99461.59
2017-09-19T07:31:07.255Z,99462.81
2017-09-19T07:35:10.706Z,99463.91
2017-09-19T07:39:14.495Z,99472.22
2017-09-19T07:43:18.710Z,99473.03
2017-09-19T07:47:22.766Z,99472.08
2017-09-19T07:51:26.224Z,99477.52
2017-09-19T07:55:30.068Z,99479.30
2017-09-19T07:59:34.287Z,99481.34
2017-09-19T08:03:38.864Z,99477.66
2017-09-19T08:07:42.321Z,99480.42
2017-09-19T08:11:46.859Z,99486.02
2017-09-19T08:15:51.075Z,99483.15
2017-09-19T08:19:55.609Z,99476.20
2017-09-19T08:23:59.849Z,99482.77
2017-09-19T08:28:04.387Z,99478.69
2017-09-19T08:32:07.834Z,99485.98
2017-09-19T08:36:11.595Z,99493.06
2017-09-19T08:40:15.818Z,99485.57
2017-09-19T08:44:20.365Z,99494.56
2017-09-19T08:48:24.579Z,99492.66
2017-09-19T08:52:29.110Z,99501.65
2017-09-19T08:56:33.330Z,99502.88
2017-09-19T09:00:37.865Z,99501.92
2017-09-19T09:04:42.078Z,99503.32
2017-09-19T09:08:46.621Z,99498.83
2017-09-19T09:12:50.852Z,99496.64
2017-09-19T09:16:55.382Z,99488.47
2017-09-19T09:20:59.604Z,99492.28
2017-09-19T09:25:04.135Z,99498.95
2017-09-19T09:29:08.359Z,99500.02
2017-09-19T09:33:12.891Z,99501.23
2017-09-19T09:37:17.118Z,99498.92
2017-09-19T09:41:21.655Z,99501.31
2017-09-19T09:45:25.868Z,99497.05
2017-09-19T09:49:30.411Z,99507.41
2017-09-19T09:53:34.660Z,99505.36
2017-09-19T09:57:38.454Z,99505.36
2017-09-19T10:01:42.694Z,99497.19
2017-09-19T10:05:46.445Z,99498.45
2017-09-19T10:09:49.934Z,99490.75
2017-09-19T10:13:53.718Z,99493.20
2017-09-19T10:17:57.927Z,99488.64
2017-09-19T10:22:02.467Z,99487.55
2017-09-19T10:26:06.687Z,99480.16
2017-09-19T10:30:11.227Z,99486.96
2017-09-19T10:34:15.434Z,99483.97
2017-09-19T10:38:19.271Z,99489.41
2017-09-19T10:42:23.482Z,99487.75
2017-09-19T10:46:28.025Z,99480.83
2017-09-19T10:50:32.258Z,99485.05
2017-09-19T10:54:36.886Z,99489.02
2017-09-19T10:58:41.230Z,99485.74
2017-09-19T11:02:45.027Z,99488.05
2017-09-19T11:06:49.264Z,99491.33
2017-09-19T11:10:53.085Z,99492.83
2017-09-19T11:14:56.534Z,99491.88
2017-09-19T11:19:00.291Z,99486.42
2017-09-19T11:23:04.552Z,99485.19
2017-09-19T11:27:08.410Z,99492.01
2017-09-19T11:31:11.875Z,99497.45
2017-09-19T11:35:15.659Z,99493.27
2017-09-19T11:39:19.879Z,99489.59
2017-09-19T11:43:24.407Z,99501.38
2017-09-19T11:47:28.651Z,99498.11
2017-09-19T11:51:32.442Z,99496.34
2017-09-19T11:55:36.667Z,99501.27
2017-09-19T11:59:41.211Z,99504.69
2017-09-19T12:03:45.475Z,99501.17
2017-09-19T12:07:49.251Z,99508.67
2017-09-19T12:11:53.451Z,99507.03
2017-09-19T12:15:57.286Z,99510.48
2017-09-19T12:20:01.551Z,99507.48
2017-09-19T12:24:05.427Z,99505.16
2017-09-19T12:28:09.662Z,99510.89
2017-09-19T12:32:14.191Z,99509.11
2017-09-19T12:36:18.416Z,99508.70
2017-09-19T12:40:23.051Z,99505.44
2017-09-19T12:44:27.258Z,99514.56
2017-09-19T12:48:30.998Z,99515.83
2017-09-19T12:52:34.456Z,99518.01
2017-09-19T12:56:38.298Z,99517.05
2017-09-19T13:00:42.517Z,99509.93
2017-09-19T13:04:46.350Z,99509.66
2017-09-19T13:08:50.575Z,99506.94
2017-09-19T13:12:55.210Z,99509.66
2017-09-19T13:16:59.450Z,99509.80
2017-09-19T13:21:03.242Z,99516.74
2017-09-19T13:25:07.471Z,99508.43
2017-09-19T13:29:12.084Z,99502.16
2017-09-19T13:33:33.444Z,99510.20
2017-09-19T13:37:37.255Z,99514.16
2017-09-19T13:41:41.480Z,99502.71
2017-09-19T13:45:45.397Z,99498.21
2017-09-19T13:49:49.635Z,99499.98
2017-09-19T13:53:53.443Z,99500.94
2017-09-19T13:57:57.095Z,99499.16
2017-09-19T14:02:00.858Z,99504.20
2017-09-19T14:06:05.088Z,99503.66
2017-09-19T14:10:09.719Z,99504.62
2017-09-19T14:14:13.943Z,99503.66
2017-09-19T14:18:18.476Z,99507.20
2017-09-19T14:22:22.692Z,99510.78
2017-09-19T14:26:27.226Z,99514.02
2017-09-19T14:30:31.451Z,99514.30
2017-09-19T14:34:36.004Z,99514.30
2017-09-19T14:38:39.459Z,99513.58
2017-09-19T14:42:43.222Z,99518.34
2017-09-19T14:46:46.684Z,99513.98
2017-09-19T14:50:50.531Z,99512.34
2017-09-19T14:54:56.397Z,99519.67
2017-09-19T14:59:01.027Z,99514.22
2017-09-19T15:03:05.391Z,99516.44
2017-09-19T15:07:09.176Z,99512.76
2017-09-19T15:11:13.406Z,99512.21
2017-09-19T15:15:17.222Z,99517.25
2017-09-19T15:19:20.859Z,99516.16
2017-09-19T15:23:24.744Z,99513.71
2017-09-19T15:27:28.975Z,99518.20
2017-09-19T15:31:32.894Z,99523.66
2017-09-19T15:35:36.423Z,99527.34
2017-09-19T15:39:40.214Z,99531.13
2017-09-19T15:43:44.455Z,99530.17
2017-09-19T15:47:48.242Z,99524.17
2017-09-19T15:51:52.464Z,99534.16
2017-09-19T15:55:57.020Z,99529.93
2017-09-19T16:00:00.471Z,99534.29
2017-09-19T16:04:04.223Z,99534.84
2017-09-19T16:08:08.591Z,99538.92
2017-09-19T16:12:12.471Z,99541.78
2017-09-19T16:16:16.765Z,99540.12
2017-09-19T16:20:20.627Z,99546.11
2017-09-19T16:24:24.085Z,99544.88
2017-09-19T16:28:27.846Z,99551.42
2017-09-19T16:32:31.300Z,99548.84
2017-09-19T16:36:35.058Z,99553.33
2017-09-19T16:40:39.324Z,99558.51
2017-09-19T16:44:43.204Z,99560.83
2017-09-19T16:48:47.450Z,99563.11
2017-09-19T16:52:51.243Z,99567.47
2017-09-19T16:56:55.468Z,99570.19
2017-09-19T17:01:00.821Z,99573.87
2017-09-19T17:05:04.288Z,99582.05
2017-09-19T17:09:08.133Z,99581.91
2017-09-19T17:13:12.370Z,99587.63
2017-09-19T17:17:17.003Z,99584.22
2017-09-19T17:21:21.225Z,99583.51
2017-09-19T17:25:25.864Z,99594.72
2017-09-19T17:29:30.125Z,99594.51
2017-09-19T17:33:33.914Z,99599.27
2017-09-19T17:37:37.376Z,99600.91
2017-09-19T17:41:41.915Z,99608.81
2017-09-19T17:45:45.410Z,99618.63
2017-09-19T17:49:49.291Z,99618.21
2017-09-19T17:53:52.813Z,99621.34
2017-09-19T17:57:56.695Z,99632.48
2017-09-19T18:02:00.919Z,99633.84
2017-09-19T18:06:04.702Z,99635.75
2017-09-19T18:10:08.533Z,99635.61
2017-09-19T18:14:13.084Z,99655.00
2017-09-19T18:18:16.539Z,99646.11
2017-09-19T18:22:20.401Z,99653.05
2017-09-19T18:26:24.594Z,99655.23
2017-09-19T18:30:28.461Z,99665.04
2017-09-19T18:34:31.908Z,99667.22
2017-09-19T18:38:35.764Z,99669.95
2017-09-19T18:42:39.335Z,99674.58
2017-09-19T18:46:43.192Z,99668.44
2017-09-19T18:50:47.421Z,99675.13
2017-09-19T18:54:52.042Z,99669.80
2017-09-19T18:58:56.287Z,99679.75
2017-09-19T19:03:00.195Z,99682.58
2017-09-19T19:07:04.412Z,99683.25
2017-09-19T19:11:09.064Z,99686.38
2017-09-19T19:15:12.518Z,99686.65
2017-09-19T19:19:16.380Z,99692.38
2017-09-19T19:23:19.838Z,99688.56
2017-09-19T19:27:23.715Z,99692.64
2017-09-19T19:31:27.163Z,99695.37
2017-09-19T19:35:31.024Z,99705.55
2017-09-19T19:39:35.253Z,99700.95
2017-09-19T19:43:39.163Z,99709.63
2017-09-19T19:47:43.380Z,99707.35
2017-09-19T19:51:48.019Z,99709.48
2017-09-19T19:55:52.283Z,99714.27
2017-09-19T19:59:56.085Z,99708.41
2017-09-19T20:03:59.548Z,99715.48
2017-09-19T20:08:03.259Z,99719.03
2017-09-19T20:12:06.717Z,99719.16
2017-09-19T20:16:10.511Z,99718.62
2017-09-19T20:20:14.735Z,99727.33
2017-09-19T20:24:19.231Z,99731.42
2017-09-19T20:28:22.678Z,99726.92
2017-09-19T20:32:26.575Z,99731.96
2017-09-19T20:36:30.987Z,99729.37
2017-09-19T20:40:34.740Z,99735.36
2017-09-19T20:44:38.195Z,99738.59
2017-09-19T20:48:42.031Z,99740.09
2017-09-19T20:52:45.479Z,99748.80
2017-09-19T20:56:49.266Z,99740.22
2017-09-19T21:00:53.503Z,99747.16
2017-09-19T21:05:02.865Z,99739.41
2017-09-19T21:09:11.975Z,99742.39
2017-09-19T21:13:21.948Z,99744.98
2017-09-19T21:17:31.758Z,99741.03
2017-09-19T21:21:35.620Z,99741.13
2017-09-19T21:25:39.836Z,99746.06
2017-09-19T21:29:44.376Z,99741.67
2017-09-19T21:33:47.914Z,99739.89
2017-09-19T21:37:51.707Z,99732.13
2017-09-19T21:41:55.172Z,99729.13
2017-09-19T21:45:59.739Z,99738.25
2017-09-19T21:50:04.113Z,99736.48
2017-09-19T21:54:07.879Z,99733.34
2017-09-19T21:58:12.090Z,99734.30
2017-09-19T22:02:15.919Z,99732.12
2017-09-19T22:06:20.142Z,99735.80
2017-09-19T22:10:24.775Z,99731.70
2017-09-19T22:14:28.990Z,99740.02
2017-09-19T22:18:33.806Z,99739.60
2017-09-19T22:22:37.279Z,99734.39
2017-09-19T22:26:41.057Z,99735.47
2017-09-19T22:30:45.270Z,99730.84
2017-09-19T22:34:49.115Z,99728.12
2017-09-19T22:38:52.571Z,99732.34
2017-09-19T22:42:56.468Z,99732.75
2017-09-19T22:46:59.919Z,99735.47
2017-09-19T22:51:03.765Z,99734.78
2017-09-19T22:55:07.219Z,99733.42
2017-09-19T22:59:11.080Z,99732.59
2017-09-19T23:03:15.323Z,99739.69
2017-09-19T23:07:19.111Z,99736.24
2017-09-19T23:11:23.450Z,99732.70
2017-09-19T23:15:27.979Z,99741.41
2017-09-19T23:19:32.195Z,99741.55
2017-09-19T23:23:36.846Z,99745.22
2017-09-19T23:27:40.317Z,99745.62
2017-09-19T23:31:44.072Z,99740.31
2017-09-19T23:35:47.522Z,99738.54
2017-09-19T23:39:51.296Z,99737.72
2017-09-19T23:43:54.756Z,99740.98
2017-09-19T23:47:58.503Z,99743.17
2017-09-19T23:52:02.732Z,99741.39
2017-09-19T23:56:06.544Z,99736.48
